Haverhill, United Kingdom
Current Conditions -  °F | °C
As of 8:20 AM on Wednesday 26 Nov 2014 (Local Time) from EGSC Reporting Station
Drizzle Drizzle  
Wind Chill: 45°   Ceiling: 200
Heat Index: 45°   Visibility: 1.8mi
Dew Point: 45°   Wind: 3mph
Humidity: 100%   Direction: 20°NNE
Pressure: 29.88"   Gusts: NA
Location:  52.08°N, 0.44°E
Report Text: EGSC 260820Z 02003KT 3000 DZ BR BKN002 07/07 Q1012
Loading
Personal Weather Stations






























Interactive Weather Map New forecast layout! Learn more

10-Day Weather Forecast

Advertisements
Track Severe Weather on mobile